Regional Weather

 

KMKL - Jackson/McKellar Rgnl, Tennessee, USA
Distance from station: NW 19mi, 30km
Updated: Sun, 23-Jun-2024 2:53am CDT
Clear
Clear
 Wind from SSW
Wind: SSW 7 mph, 11 km/h
Temperature: 75°F, 24°C
Dew Point: 68°F, 20°C
Humidity: 78%
Barometer: 29.94 inHg, 1013.9 hPa
Clouds: Clear
Visibility: 10 miles, 16 km
2024/06/23 07:53 KMKL 230753Z AUTO 20006KT 10SM CLR 24/20 A2994 RMK AO2 SLP132 T02390200 PWINO $
KMEM - Memphis Intl, Tennessee, USA
Distance from station: SW 99mi, 160km
Updated: Sun, 23-Jun-2024 2:54am CDT
Clear
Clear
 Wind from SSW
Wind: SSW 7 mph, 11 km/h
Temperature: 79°F, 26°C
Dew Point: 66°F, 19°C
Humidity: 65%
Barometer: 29.94 inHg, 1013.9 hPa
Clouds: Clear
Visibility: 10 miles, 16 km
2024/06/23 07:54 KMEM 230754Z 21006KT 10SM CLR 26/19 A2994 RMK AO2 SLP132 T02560189 $
 
KBNA - Nashville, Tennessee, USA
Distance from station: NE 98mi, 157km
Updated: Sun, 23-Jun-2024 2:53am CDT
Clear
Clear
 Wind from calm
Wind: Calm
Temperature: 75°F, 24°C
Dew Point: 68°F, 20°C
Humidity: 78%
Barometer: 29.95 inHg, 1014.2 hPa
Clouds: Clear
Visibility: 10 miles, 16 km
2024/06/23 07:53 KBNA 230753Z 00000KT 10SM CLR 24/20 A2995 RMK AO2 SLP134 T02440200
KSZY - Selmer/Sibley Arpt, Tennessee, USA
Distance from station: SSE 18mi, 29km
Updated: Sun, 23-Jun-2024 2:55am CDT

 
2024/06/23 07:55 KSZY 230755Z AUTO RMK A01 PNO
 
KM08 - Bolivar/Whitehurst Fld, Tennessee, USA
Distance from station: SW 28mi, 44km
Updated: Mon, 10-Jun-2024 3:30pm CDT
NOT Current
Few Clouds
Few Clouds
 Wind from W
Wind: W 8 mph, 13 km/h, Gust: 14 mph, 22 km/h
Temperature: 84°F, 29°C
Dew Point: 54°F, 12°C
Humidity: 35%
Barometer: 29.88 inHg, 1011.9 hPa
Clouds: Few Clouds
Visibility: 10 miles, 16 km
Cloud details: Few Clouds 7000 ft
2024/06/10 20:30 KM08 102030Z AUTO 26007G12KT 10SM FEW070 29/12 A2988 RMK A01
KPVE - Lexington/Beech River Rgnl, Tennessee, USA
Distance from station: ENE 29mi, 47km
Updated: Sun, 23-Jun-2024 2:50am CDT
Mist, Clear
Mist, Clear
 Wind from calm
Wind: Calm
Temperature: 72°F, 22°C
Dew Point: 72°F, 22°C
Humidity: 100%
Barometer: 29.94 inHg, 1013.9 hPa
Summary: Mist
Clouds: Clear
Visibility: 2 1/2 miles, 4 km
2024/06/23 07:50 KPVE 230750Z AUTO 00000KT 2 1/2SM BR CLR 22/22 A2994 RMK A01
 
KSNH - Savannah/Hardin Cnty, Tennessee, USA
Distance from station: SE 30mi, 49km
Updated: Sun, 23-Jun-2024 2:50am CDT
Few Clouds
Few Clouds
 Wind from SSE
Wind: SSE 3 mph, 6 km/h
Temperature: 73°F, 23°C
Dew Point: 72°F, 22°C
Humidity: 94%
Barometer: 29.94 inHg, 1013.9 hPa
Clouds: Few Clouds
Visibility: 10 miles, 16 km
Cloud details: Few Clouds 4900 ft
Few Clouds 6000 ft
2024/06/23 07:50 KSNH 230750Z AUTO 16003KT 10SM FEW049 FEW060 23/22 A2994 RMK A01
KCRX - Corinth/Turner Fld, Mississippi, USA
Distance from station: S 36mi, 58km
Updated: Sun, 23-Jun-2024 2:55am CDT
Mist, Clear
Mist, Clear
 Wind from calm
Wind: Calm
Temperature: 70°F, 21°C
Dew Point: 70°F, 21°C
Humidity: 100%
Barometer: 29.96 inHg, 1014.6 hPa
Summary: Mist
Clouds: Clear
Visibility: 6 miles, 10 km
2024/06/23 07:55 KCRX 230755Z AUTO 00000KT 6SM BR CLR 21/21 A2996 RMK AO2
 
KDYR - Dyersburg Rgnl, Tennessee, USA
Distance from station: NW 58mi, 93km
Updated: Sun, 23-Jun-2024 2:56am CDT
Clear
Clear
 Wind from SSW
Wind: SSW 5 mph, 7 km/h
Temperature: 81°F, 27°C
Heat Index: 84°F, 29°C
Dew Point: 68°F, 20°C
Humidity: 66%
Barometer: 29.92 inHg, 1013.2 hPa
Clouds: Clear
Visibility: 10 miles, 16 km
2024/06/23 07:56 KDYR 230756Z AUTO 21004KT 10SM CLR 27/20 A2992 RMK AO2 SLP135 T02670200
KPHT - Paris/Henry Cnty, Tennessee, USA
Distance from station: NNE 63mi, 102km
Updated: Sun, 23-Jun-2024 2:50am CDT
Clear
Clear
 Wind from SSW
Wind: SSW 6 mph, 9 km/h
Temperature: 73°F, 23°C
Dew Point: 70°F, 21°C
Humidity: 89%
Barometer: 29.92 inHg, 1013.2 hPa
Clouds: Clear
Visibility: 10 miles, 16 km
2024/06/23 07:50 KPHT 230750Z AUTO 21005KT 10SM CLR 23/21 A2992 RMK A01
 
KMSL - Muscle Shoals/NW Alabama Rgnl, Alabama, USA
Distance from station: SE 76mi, 122km
Updated: Sun, 23-Jun-2024 2:53am CDT
Clear
Clear
 Wind from calm
Wind: Calm
Temperature: 73°F, 23°C
Dew Point: 68°F, 20°C
Humidity: 83%
Barometer: 29.96 inHg, 1014.6 hPa
Clouds: Clear
Visibility: 10 miles, 16 km
2024/06/23 07:53 KMSL 230753Z AUTO 00000KT 10SM CLR 23/20 A2996 RMK AO2 SLP139 T02280200